Rhinelander, WI (54501)

1:36 PM CDT on October 23, 2014 (GMT -0500)
Rhinelander CW5781 | Change Station
CLOSE
Current Station
Personal Weather Station
Location: Rhinelander, WI
Elevation: 1520 ft
Nearby Weather Stations

Elev 1520 ft 45.64 °N, 89.39 °W | Updated 15 seconds ago

Rain
Rain
43.9 °F
Feels Like 44 °F
N
1.0
Wind Variable Wind from ESE
Gusts 2.0 mph

Today
High -- | Low -- °F
--% Chance of Precip.
Yesterday
High -- | Low -- °F
Precip. -- in
7:24 AM 5:57 PM
Waning Crescent, 0% visible
Pressure 30.08 in
Visibility 4.0 miles
Clouds Overcast 600 ft
Windchill 44 °F
Dew Point 43 °F
Humidity 97%
Rainfall 0.13 in
Snow Depth Not available.
UV 1 out of 12
Pollen .10 out of 12
Air Quality Not available.
Flu Activity Sporadic
METAR KRHI 231753Z AUTO 21005KT 4SM -RA BR OVC006 06/05 A3004 RMK AO2 SLP185 P0003 60010 T00610050 10067 20056 58006

More Conditions Fewer Conditions

Pressure 30.08 in
Visibility 4.0 miles
Clouds Overcast 600 ft
Windchill 44 °F
Dew Point 43 °F
Humidity 97%
Rainfall 0.13 in
Snow Depth Not available.
UV 1 out of 12
Pollen .10 out of 12
Air Quality Not available.
Flu Activity Sporadic
METAR KRHI 231753Z AUTO 21005KT 4SM -RA BR OVC006 06/05 A3004 RMK AO2 SLP185 P0003 60010 T00610050 10067 20056 58006

More Conditions Fewer Conditions

10-Day Weather Forecast

Almanac

Astronomy

Oct. 23, 2014 Rise Set
Actual Time 7:24 AM CDT 5:57 PM CDT
Civil Twilight 6:54 AM CDT 6:28 PM CDT
Nautical Twilight 6:19 AM CDT 7:02 PM CDT
Astronomical Twilight 5:45 AM CDT 7:37 PM CDT
Moon 7:03 AM CDT 5:59 PM CDT
Length of Visible Light 11h 33m
Length of Day
10h 33m
Tomorrow will be 3m 0s shorter.
Waning Crescent, 0% of the Moon is Illuminated
Today
Waning Crescent
Oct 23
New
Oct 30
First Quarter
Nov 6
Full
Nov 14
Last Quarter

Today's Extremes

State Highs State Lows

Community

WunderPhotos

Upload Photos

1,764,338 photos uploaded!

WunderBlogs® & News

Nearby

Snow Depth

Station Depth Elevation
No new snow has been reported.

Earthquake Activity

City Distance Mag. Time & Date
No recent earthquake activity has been reported nearby.
Minimum magnitude displayed is 2.5.

Coastal Water Temperatures

Place Temperature
No Stations Reporting

Nearby Weather Stations